Queen Valley, Arizona
Current Conditions -  °F | °C
As of 3:51 PM on Wednesday 26 Nov 2014 (Local Time) from KIWA Reporting Station
Clear Clear  
Wind Chill: 72°   Ceiling: Unl
Heat Index: 72°   Visibility: 45mi
Dew Point: 21°   Wind: 8mph
Humidity: 15%   Direction: 260°W
Pressure: 30.19"   Gusts: NA
Location:  33.2782°N, 111.363°W
Report Text: KIWA 262251Z 26007KT 45SM SKC 22/M06 A3019
Loading
Personal Weather Stations






























Interactive Weather Map New forecast layout! Learn more

10-Day Weather Forecast

Advertisements
Track Severe Weather on mobile